createdAt,value
2019-04-27T00:01:10.624Z,5.03
2019-04-27T00:03:55.449Z,6.50
2019-04-27T00:06:25.528Z,5.47
2019-04-27T00:08:55.635Z,7.57
2019-04-27T00:11:25.454Z,7.13
2019-04-27T00:13:53.856Z,4.67
2019-04-27T00:16:24.082Z,4.47
2019-04-27T00:18:56.504Z,5.60
2019-04-27T00:21:37.755Z,4.93
2019-04-27T00:24:06.286Z,5.83
2019-04-27T00:26:34.461Z,6.30
2019-04-27T00:29:03.798Z,5.00
2019-04-27T00:31:33.687Z,6.30
2019-04-27T00:34:03.524Z,5.73
2019-04-27T00:36:39.329Z,6.67
2019-04-27T00:39:25.838Z,4.63
2019-04-27T00:41:54.352Z,5.33
2019-04-27T00:44:23.714Z,5.50
2019-04-27T00:46:53.394Z,4.10
2019-04-27T00:49:21.675Z,4.33
2019-04-27T00:51:49.849Z,4.63
2019-04-27T00:54:18.360Z,8.27
2019-04-27T00:56:48.201Z,4.97
2019-04-27T00:59:23.940Z,4.77
2019-04-27T01:01:59.426Z,7.83
2019-04-27T01:04:29.263Z,3.37
2019-04-27T01:06:57.763Z,5.27
2019-04-27T01:09:25.952Z,3.83
2019-04-27T01:11:54.230Z,7.10
2019-04-27T01:14:23.134Z,5.93
2019-04-27T01:16:51.588Z,3.97
2019-04-27T01:19:19.892Z,3.80
2019-04-27T01:21:49.648Z,4.77
2019-04-27T01:24:18.919Z,4.93
2019-04-27T01:27:04.038Z,5.70
2019-04-27T01:29:33.878Z,3.63
2019-04-27T01:32:02.326Z,5.97
2019-04-27T01:34:30.802Z,5.47
2019-04-27T01:36:59.561Z,5.70
2019-04-27T01:39:28.948Z,3.70
2019-04-27T01:41:58.947Z,3.73
2019-04-27T01:44:29.354Z,4.63
2019-04-27T01:46:57.762Z,5.87
2019-04-27T01:49:26.296Z,5.63
2019-04-27T01:51:54.541Z,8.90
2019-04-27T01:54:24.386Z,6.43
2019-04-27T01:56:52.570Z,5.87
2019-04-27T01:59:21.038Z,6.40
2019-04-27T02:02:08.757Z,4.60
2019-04-27T02:04:55.026Z,6.73
2019-04-27T02:07:23.278Z,8.23
2019-04-27T02:09:51.818Z,8.03
2019-04-27T02:12:20.001Z,10.70
2019-04-27T02:14:49.132Z,8.03
2019-04-27T02:17:18.691Z,6.60
2019-04-27T02:19:47.034Z,7.97
2019-04-27T02:22:15.234Z,5.00
2019-04-27T02:24:43.442Z,6.60
2019-04-27T02:27:12.406Z,7.73
2019-04-27T02:29:42.527Z,6.80
2019-04-27T02:32:12.647Z,5.33
2019-04-27T02:34:51.542Z,5.73
2019-04-27T02:37:20.281Z,7.60
2019-04-27T02:39:50.080Z,5.97
2019-04-27T02:42:20.011Z,6.27
2019-04-27T02:44:49.439Z,6.37
2019-04-27T02:47:20.552Z,9.40
2019-04-27T02:49:50.404Z,7.37
2019-04-27T02:52:31.628Z,9.40
2019-04-27T02:54:59.814Z,6.60
2019-04-27T02:57:30.127Z,5.70
2019-04-27T03:00:00.025Z,8.60
2019-04-27T03:02:30.264Z,7.83
2019-04-27T03:05:00.573Z,5.30
2019-04-27T03:07:30.136Z,4.63
2019-04-27T03:09:59.626Z,4.97
2019-04-27T03:12:30.193Z,4.83
2019-04-27T03:15:00.028Z,3.83
2019-04-27T03:17:45.967Z,4.13
2019-04-27T03:20:24.461Z,4.10
2019-04-27T03:22:54.303Z,4.53
2019-04-27T03:25:26.546Z,3.20
2019-04-27T03:28:00.094Z,6.53
2019-04-27T03:30:31.756Z,6.37
2019-04-27T03:33:03.134Z,4.43
2019-04-27T03:35:35.172Z,4.93
2019-04-27T03:38:00.495Z,6.87
2019-04-27T03:40:30.720Z,6.40
2019-04-27T03:43:00.036Z,6.20
2019-04-27T03:45:29.860Z,5.10
2019-04-27T03:48:00.202Z,2.90
2019-04-27T03:50:32.705Z,2.67
2019-04-27T03:53:10.343Z,4.03
2019-04-27T03:55:50.183Z,2.67
2019-04-27T03:58:23.203Z,3.83
2019-04-27T04:00:52.961Z,5.40
2019-04-27T04:03:21.150Z,6.33
2019-04-27T04:05:49.498Z,6.40
2019-04-27T04:08:19.405Z,4.30
2019-04-27T04:10:49.586Z,3.43
2019-04-27T04:13:25.334Z,4.27
2019-04-27T04:16:00.931Z,3.80
2019-04-27T04:18:31.767Z,5.87
2019-04-27T04:21:00.546Z,2.93
2019-04-27T04:23:30.065Z,4.67
2019-04-27T04:25:59.815Z,6.90
2019-04-27T04:28:29.620Z,4.53
2019-04-27T04:31:00.382Z,4.23
2019-04-27T04:33:30.246Z,4.37
2019-04-27T04:35:59.720Z,3.50
2019-04-27T04:38:30.453Z,5.00
2019-04-27T04:41:12.255Z,3.47
2019-04-27T04:43:45.141Z,3.60
2019-04-27T04:46:31.568Z,5.00
2019-04-27T04:49:00.408Z,6.00
2019-04-27T04:51:30.369Z,6.17
2019-04-27T04:53:59.843Z,4.63
2019-04-27T04:56:29.233Z,3.80
2019-04-27T04:59:00.061Z,6.00
2019-04-27T05:01:29.956Z,3.03
2019-04-27T05:03:59.011Z,4.57
2019-04-27T05:06:29.051Z,6.90
2019-04-27T05:08:57.266Z,3.63
2019-04-27T05:11:25.751Z,5.13
2019-04-27T05:13:54.234Z,4.53
2019-04-27T05:16:22.714Z,3.87
2019-04-27T05:18:50.899Z,4.47
2019-04-27T05:21:20.717Z,7.43
2019-04-27T05:23:48.904Z,4.40
2019-04-27T05:26:19.370Z,4.17
2019-04-27T05:28:49.173Z,4.43
2019-04-27T05:31:17.190Z,3.30
2019-04-27T05:33:45.663Z,6.93
2019-04-27T05:36:14.144Z,3.30
2019-04-27T05:38:46.011Z,4.50
2019-04-27T05:41:12.275Z,3.77
2019-04-27T05:43:58.993Z,3.90
2019-04-27T05:46:47.179Z,4.87
2019-04-27T05:49:22.961Z,4.73
2019-04-27T05:51:51.173Z,5.93
2019-04-27T05:54:19.842Z,4.10
2019-04-27T05:56:49.248Z,3.10
2019-04-27T05:59:19.189Z,3.53
2019-04-27T06:01:49.168Z,5.60
2019-04-27T06:04:19.313Z,3.57
2019-04-27T06:06:49.680Z,7.83
2019-04-27T06:09:19.391Z,3.00
2019-04-27T06:11:48.698Z,8.03
2019-04-27T06:14:19.224Z,2.90
2019-04-27T06:16:50.961Z,6.43
2019-04-27T06:19:19.277Z,7.07
2019-04-27T06:21:47.670Z,6.93
2019-04-27T06:24:15.857Z,4.70
2019-04-27T06:26:44.466Z,4.43
2019-04-27T06:29:12.948Z,3.73
2019-04-27T06:31:41.154Z,4.63
2019-04-27T06:34:09.926Z,7.07
2019-04-27T06:36:38.764Z,4.77
2019-04-27T06:39:09.790Z,4.50
2019-04-27T06:41:39.777Z,5.83
2019-04-27T06:44:11.001Z,6.67
2019-04-27T06:46:38.576Z,8.57
2019-04-27T06:49:09.064Z,7.87
2019-04-27T06:51:40.027Z,5.00
2019-04-27T06:54:09.324Z,6.67
2019-04-27T06:56:38.909Z,4.53
2019-04-27T06:59:08.721Z,5.87
2019-04-27T07:01:38.785Z,8.73
2019-04-27T07:04:10.576Z,6.67
2019-04-27T07:06:37.359Z,4.13
2019-04-27T07:09:09.615Z,4.10
2019-04-27T07:11:39.442Z,4.87
2019-04-27T07:14:11.149Z,5.53
2019-04-27T07:16:39.236Z,3.17
2019-04-27T07:19:09.421Z,4.90
2019-04-27T07:21:39.725Z,4.90
2019-04-27T07:24:08.988Z,3.43
2019-04-27T07:26:39.058Z,6.27
2019-04-27T07:29:09.372Z,4.07
2019-04-27T07:31:39.809Z,3.57
2019-04-27T07:34:09.266Z,5.40
2019-04-27T07:36:39.286Z,7.73
2019-04-27T07:39:11.223Z,5.00
2019-04-27T07:41:38.870Z,4.80
2019-04-27T07:44:10.185Z,6.57
2019-04-27T07:46:38.636Z,8.33
2019-04-27T07:49:06.973Z,6.53
2019-04-27T07:51:35.160Z,5.23
2019-04-27T07:54:03.378Z,7.73
2019-04-27T07:56:31.952Z,7.27
2019-04-27T07:59:00.531Z,6.63
2019-04-27T08:01:29.378Z,6.43
2019-04-27T08:03:59.057Z,6.07
2019-04-27T08:06:29.020Z,6.57
2019-04-27T08:08:59.304Z,5.27
2019-04-27T08:11:29.213Z,7.40
2019-04-27T08:13:58.797Z,6.57
2019-04-27T08:16:29.014Z,5.70
2019-04-27T08:18:57.121Z,5.60
2019-04-27T08:21:25.657Z,5.63
2019-04-27T08:23:53.834Z,9.97
2019-04-27T08:26:23.953Z,5.47
2019-04-27T08:28:58.545Z,8.20
2019-04-27T08:31:28.771Z,7.90
2019-04-27T08:33:58.280Z,5.17
2019-04-27T08:36:28.884Z,7.93
2019-04-27T08:38:58.869Z,7.70
2019-04-27T08:41:27.279Z,9.77
2019-04-27T08:43:55.703Z,7.63
2019-04-27T08:46:23.896Z,6.07
2019-04-27T08:48:52.181Z,8.13
2019-04-27T08:51:20.409Z,6.83
2019-04-27T08:53:50.168Z,9.70
2019-04-27T08:56:19.377Z,7.93
2019-04-27T08:58:49.543Z,7.13
2019-04-27T09:01:18.344Z,8.17
2019-04-27T09:03:49.502Z,7.60
2019-04-27T09:06:18.984Z,7.50
2019-04-27T09:08:49.591Z,11.23
2019-04-27T09:11:20.645Z,7.73
2019-04-27T09:13:50.982Z,9.07
2019-04-27T09:16:23.524Z,9.63
2019-04-27T09:18:53.671Z,8.33
2019-04-27T09:21:21.899Z,10.20
2019-04-27T09:23:50.158Z,4.13
2019-04-27T09:26:18.658Z,4.87
2019-04-27T09:28:46.906Z,3.57
2019-04-27T09:31:15.356Z,4.43
2019-04-27T09:33:43.616Z,4.83
2019-04-27T09:36:12.215Z,4.63
2019-04-27T09:38:40.399Z,6.23
2019-04-27T09:41:08.586Z,5.67
2019-04-27T09:43:36.880Z,3.67
2019-04-27T09:46:05.867Z,7.47
2019-04-27T09:48:36.095Z,4.63
2019-04-27T09:51:06.188Z,6.10
2019-04-27T09:53:36.282Z,5.00
2019-04-27T09:56:05.837Z,5.60
2019-04-27T09:58:34.290Z,3.07
2019-04-27T10:01:02.475Z,2.13
2019-04-27T10:03:30.686Z,2.93
2019-04-27T10:05:58.866Z,1.17
2019-04-27T10:08:27.366Z,4.20
2019-04-27T10:10:56.691Z,6.93
2019-04-27T10:13:25.670Z,5.93
2019-04-27T10:15:54.934Z,5.17
2019-04-27T10:18:23.135Z,4.50
2019-04-27T10:20:59.685Z,5.23
2019-04-27T10:23:21.226Z,9.33
2019-04-27T10:25:49.703Z,5.80
2019-04-27T10:28:17.916Z,8.30
2019-04-27T10:30:46.354Z,7.03
2019-04-27T10:33:16.113Z,4.97
2019-04-27T10:35:44.484Z,7.47
2019-04-27T10:38:12.690Z,7.47
2019-04-27T10:40:40.868Z,6.93
2019-04-27T10:43:09.074Z,9.13
2019-04-27T10:45:37.927Z,6.27
2019-04-27T10:48:06.638Z,8.10
2019-04-27T10:50:36.433Z,11.43
2019-04-27T10:53:06.821Z,11.47
2019-04-27T10:55:36.267Z,8.57
2019-04-27T10:58:05.209Z,11.10
2019-04-27T11:00:41.436Z,6.63
2019-04-27T11:03:09.906Z,5.43
2019-04-27T11:05:49.250Z,11.50
2019-04-27T11:08:17.453Z,7.23
2019-04-27T11:10:46.213Z,7.50
2019-04-27T11:13:16.364Z,8.33
2019-04-27T11:15:46.106Z,11.70
2019-04-27T11:18:16.541Z,10.70
2019-04-27T11:20:44.402Z,8.20
2019-04-27T11:23:12.606Z,11.87
2019-04-27T11:25:40.782Z,8.80
2019-04-27T11:28:08.988Z,9.60
2019-04-27T11:30:37.527Z,10.13
2019-04-27T11:33:06.328Z,12.03
2019-04-27T11:35:46.970Z,10.47
2019-04-27T11:38:16.759Z,8.33
2019-04-27T11:40:46.629Z,6.87
2019-04-27T11:43:16.086Z,9.87
2019-04-27T11:45:45.732Z,7.67
2019-04-27T11:48:16.007Z,8.07
2019-04-27T11:50:45.724Z,8.67
2019-04-27T11:53:22.089Z,10.97
2019-04-27T11:55:43.934Z,6.20
2019-04-27T11:58:12.146Z,6.03
2019-04-27T12:00:40.313Z,7.67
2019-04-27T12:03:08.859Z,5.83
2019-04-27T12:05:37.338Z,8.77
2019-04-27T12:08:06.245Z,8.43
2019-04-27T12:10:36.217Z,9.33
2019-04-27T12:13:05.426Z,6.53
2019-04-27T12:15:36.216Z,4.90
2019-04-27T12:18:08.902Z,6.53
2019-04-27T12:20:35.877Z,5.67
2019-04-27T12:23:06.355Z,7.03
2019-04-27T12:25:37.032Z,5.37
2019-04-27T12:28:11.689Z,9.50
2019-04-27T12:30:47.849Z,5.83
2019-04-27T12:33:16.053Z,6.47
2019-04-27T12:35:44.271Z,2.93
2019-04-27T12:38:12.472Z,3.23
2019-04-27T12:40:40.666Z,2.93
2019-04-27T12:43:09.127Z,3.40
2019-04-27T12:45:40.299Z,1.33
2019-04-27T12:48:07.926Z,2.00
2019-04-27T12:50:36.264Z,4.63
2019-04-27T12:53:06.070Z,3.93
2019-04-27T12:55:51.613Z,2.33
2019-04-27T12:58:39.438Z,3.03
2019-04-27T13:01:12.242Z,3.07
2019-04-27T13:03:40.454Z,2.40
2019-04-27T13:06:08.618Z,3.67
2019-04-27T13:08:37.135Z,1.70
2019-04-27T13:11:05.986Z,2.43
2019-04-27T13:13:34.606Z,3.67
2019-04-27T13:16:02.802Z,4.50
2019-04-27T13:18:31.017Z,7.07
2019-04-27T13:20:59.199Z,9.37
2019-04-27T13:23:28.560Z,5.10
2019-04-27T13:25:56.852Z,6.13
2019-04-27T13:28:25.655Z,3.47
2019-04-27T13:30:55.861Z,7.63
2019-04-27T13:33:24.231Z,4.10
2019-04-27T13:35:52.770Z,6.47
2019-04-27T13:38:20.970Z,3.90
2019-04-27T13:41:07.432Z,5.60
2019-04-27T13:43:37.039Z,10.33
2019-04-27T13:46:11.022Z,6.20
2019-04-27T13:48:57.064Z,7.87
2019-04-27T13:51:36.034Z,5.57
2019-04-27T13:54:14.579Z,7.33
2019-04-27T13:56:34.411Z,7.40
2019-04-27T13:59:03.362Z,7.50
2019-04-27T14:01:33.721Z,5.90
2019-04-27T14:04:01.919Z,5.33
2019-04-27T14:06:30.210Z,3.77
2019-04-27T14:08:58.864Z,5.17
2019-04-27T14:11:28.936Z,8.37
2019-04-27T14:13:57.269Z,11.70
2019-04-27T14:16:25.445Z,5.93
2019-04-27T14:18:53.651Z,5.80
2019-04-27T14:21:23.032Z,8.83
2019-04-27T14:23:51.284Z,4.60
2019-04-27T14:26:19.486Z,4.13
2019-04-27T14:28:48.120Z,2.70
2019-04-27T14:31:18.926Z,6.03
2019-04-27T14:33:48.445Z,8.90
2019-04-27T14:36:18.265Z,3.03
2019-04-27T14:38:47.982Z,3.73
2019-04-27T14:41:16.994Z,8.27
2019-04-27T14:43:45.175Z,4.07
2019-04-27T14:46:13.369Z,3.87
2019-04-27T14:48:41.874Z,4.23
2019-04-27T14:51:10.086Z,4.23
2019-04-27T14:53:38.632Z,5.87
2019-04-27T14:56:08.708Z,6.83
2019-04-27T14:58:36.902Z,1.67
2019-04-27T15:01:05.501Z,2.23
2019-04-27T15:03:33.989Z,2.73
2019-04-27T15:06:02.176Z,4.50
2019-04-27T15:08:30.373Z,2.80
2019-04-27T15:10:58.622Z,2.83
2019-04-27T15:13:26.839Z,5.97
2019-04-27T15:15:55.043Z,3.10
2019-04-27T15:18:24.968Z,4.20
2019-04-27T15:20:53.131Z,2.47
2019-04-27T15:23:21.330Z,3.70
2019-04-27T15:25:50.083Z,5.73
2019-04-27T15:28:22.831Z,2.67
2019-04-27T15:30:59.544Z,6.03
2019-04-27T15:33:46.735Z,6.67
2019-04-27T15:36:33.786Z,6.23
2019-04-27T15:39:03.912Z,5.57
2019-04-27T15:41:48.653Z,6.83
2019-04-27T15:44:18.768Z,5.60
2019-04-27T15:46:47.927Z,6.67
2019-04-27T15:49:17.881Z,7.33
2019-04-27T15:51:46.278Z,4.50
2019-04-27T15:54:14.466Z,9.50
2019-04-27T15:56:42.664Z,6.03
2019-04-27T15:59:10.917Z,4.70
2019-04-27T16:01:39.701Z,8.00
2019-04-27T16:04:11.156Z,6.67
2019-04-27T16:06:38.502Z,4.40
2019-04-27T16:09:10.218Z,8.03
2019-04-27T16:11:38.727Z,5.77
2019-04-27T16:14:07.831Z,5.80
2019-04-27T16:16:38.512Z,3.50
2019-04-27T16:19:08.847Z,6.47
2019-04-27T16:21:41.512Z,6.00
2019-04-27T16:24:06.286Z,6.63
2019-04-27T16:26:34.492Z,4.07
2019-04-27T16:29:02.672Z,3.67
2019-04-27T16:31:32.851Z,6.70
2019-04-27T16:34:02.866Z,5.00
2019-04-27T16:36:31.189Z,7.97
2019-04-27T16:39:10.009Z,11.30
2019-04-27T16:41:41.796Z,5.63
2019-04-27T16:44:10.753Z,8.73
2019-04-27T16:46:39.503Z,10.60
2019-04-27T16:49:13.980Z,12.63
2019-04-27T16:51:40.324Z,10.03
2019-04-27T16:56:38.338Z,11.23
2019-04-27T16:59:33.891Z,7.60
2019-04-27T17:01:41.766Z,7.20
2019-04-27T17:04:10.521Z,8.23
2019-04-27T17:06:40.762Z,7.30
2019-04-27T17:09:09.491Z,3.70
2019-04-27T17:11:38.802Z,10.47
2019-04-27T17:12:40.067Z,5.80
2019-04-27T17:14:08.483Z,9.17
2019-04-27T17:16:41.051Z,8.30
2019-04-27T17:19:16.372Z,7.97
2019-04-27T17:21:44.581Z,9.00
2019-04-27T17:24:14.405Z,11.83
2019-04-27T17:26:43.746Z,12.00
2019-04-27T17:29:20.274Z,12.67
2019-04-27T17:31:50.562Z,8.63
2019-04-27T17:34:18.972Z,7.27
2019-04-27T17:36:54.464Z,7.87
2019-04-27T17:39:19.267Z,6.67
2019-04-27T17:41:50.564Z,8.60
2019-04-27T17:44:22.775Z,6.90
2019-04-27T17:46:51.164Z,13.23
2019-04-27T17:49:18.919Z,10.83
2019-04-27T17:51:48.432Z,13.83
2019-04-27T17:54:18.182Z,9.17
2019-04-27T17:56:50.999Z,9.73
2019-04-27T17:59:18.604Z,11.47
2019-04-27T18:01:46.359Z,6.93
2019-04-27T18:04:14.882Z,5.77
2019-04-27T18:06:43.091Z,7.00
2019-04-27T18:09:12.933Z,7.97
2019-04-27T18:11:41.144Z,9.13
2019-04-27T18:14:12.993Z,7.90
2019-04-27T18:16:39.276Z,6.50
2019-04-27T18:19:11.737Z,7.17
2019-04-27T18:21:40.742Z,6.80
2019-04-27T18:24:10.562Z,5.97
2019-04-27T18:27:00.787Z,8.67
2019-04-27T18:29:22.762Z,10.87
2019-04-27T18:31:54.622Z,6.50
2019-04-27T18:34:22.751Z,6.20
2019-04-27T18:36:50.939Z,12.60
2019-04-27T18:39:19.149Z,6.33
2019-04-27T18:41:50.589Z,7.17
2019-04-27T18:44:19.137Z,10.50
2019-04-27T18:46:48.908Z,8.73
2019-04-27T18:49:22.638Z,8.33
2019-04-27T18:52:11.026Z,9.53
2019-04-27T18:54:41.995Z,9.87
2019-04-27T18:57:10.873Z,7.63
2019-04-27T18:59:39.094Z,5.87
2019-04-27T19:02:08.440Z,7.00
2019-04-27T19:04:37.184Z,6.37
2019-04-27T19:07:05.675Z,9.17
2019-04-27T19:09:33.884Z,7.10
2019-04-27T19:12:02.070Z,7.57
2019-04-27T19:14:30.600Z,6.03
2019-04-27T19:16:58.881Z,7.10
2019-04-27T19:19:28.020Z,6.33
2019-04-27T19:21:56.452Z,7.40
2019-04-27T19:24:24.639Z,7.90
2019-04-27T19:26:54.733Z,14.77
2019-04-27T19:29:24.589Z,6.70
2019-04-27T19:32:00.134Z,8.03
2019-04-27T19:34:28.713Z,10.87
2019-04-27T19:36:59.071Z,9.73
2019-04-27T19:39:28.581Z,5.63
2019-04-27T19:42:01.402Z,7.53
2019-04-27T19:44:29.005Z,7.23
2019-04-27T19:46:57.426Z,13.57
2019-04-27T19:49:25.916Z,19.53
2019-04-27T19:51:54.111Z,8.13
2019-04-27T19:54:22.317Z,9.63
2019-04-27T19:56:50.528Z,12.73
2019-04-27T19:59:20.395Z,27.17
2019-04-27T20:01:50.149Z,11.87
2019-04-27T20:04:30.592Z,14.90
2019-04-27T20:06:58.707Z,8.77
2019-04-27T20:09:44.552Z,11.37
2019-04-27T20:12:13.759Z,10.57
2019-04-27T20:14:57.356Z,11.67
2019-04-27T20:17:26.874Z,6.90
2019-04-27T20:19:56.185Z,14.90
2019-04-27T20:22:24.512Z,16.77
2019-04-27T20:24:52.861Z,25.90
2019-04-27T20:27:21.241Z,17.37
2019-04-27T20:29:50.020Z,15.63
2019-04-27T20:32:18.211Z,14.97
2019-04-27T20:34:46.422Z,12.73
2019-04-27T20:37:14.949Z,11.83
2019-04-27T20:39:43.152Z,12.57
2019-04-27T20:42:12.614Z,11.13
2019-04-27T20:44:41.299Z,11.50
2019-04-27T20:47:10.201Z,12.20
2019-04-27T20:49:38.383Z,13.40
2019-04-27T20:52:17.306Z,13.97
2019-04-27T20:54:45.483Z,9.67
2019-04-27T20:57:13.691Z,11.70
2019-04-27T20:59:41.870Z,11.43
2019-04-27T21:02:29.723Z,13.07
2019-04-27T21:05:02.190Z,13.77
2019-04-27T21:07:43.951Z,15.00
2019-04-27T21:10:12.303Z,9.77
2019-04-27T21:12:41.550Z,8.70
2019-04-27T21:15:11.291Z,15.63
2019-04-27T21:17:40.675Z,25.67
2019-04-27T21:20:11.412Z,12.27
2019-04-27T21:22:41.282Z,13.67
2019-04-27T21:25:11.705Z,14.73
2019-04-27T21:27:41.114Z,10.60
2019-04-27T21:30:11.249Z,13.60
2019-04-27T21:32:40.093Z,14.30
2019-04-27T21:35:10.916Z,17.73
2019-04-27T21:37:40.917Z,17.17
2019-04-27T21:40:14.771Z,12.03
2019-04-27T21:42:43.221Z,9.97
2019-04-27T21:45:11.764Z,14.33
2019-04-27T21:47:41.344Z,17.47
2019-04-27T21:50:11.955Z,13.57
2019-04-27T21:53:00.604Z,21.17
2019-04-27T21:55:31.390Z,13.20
2019-04-27T21:58:01.483Z,9.07
2019-04-27T22:00:43.019Z,11.43
2019-04-27T22:03:13.300Z,10.73
2019-04-27T22:05:41.826Z,6.57
2019-04-27T22:08:11.784Z,9.83
2019-04-27T22:10:40.286Z,13.10
2019-04-27T22:13:08.493Z,11.23
2019-04-27T22:15:36.684Z,15.17
2019-04-27T22:18:04.936Z,11.47
2019-04-27T22:20:33.795Z,10.27
2019-04-27T22:23:22.975Z,19.60
2019-04-27T22:25:54.130Z,17.53
2019-04-27T22:28:20.702Z,10.70
2019-04-27T22:30:48.908Z,10.70
2019-04-27T22:33:17.442Z,13.37
2019-04-27T22:35:45.922Z,18.70
2019-04-27T22:38:14.402Z,13.43
2019-04-27T22:40:44.518Z,12.53
2019-04-27T22:43:31.550Z,14.17
2019-04-27T22:46:01.903Z,10.40
2019-04-27T22:48:31.401Z,13.13
2019-04-27T22:51:01.602Z,10.57
2019-04-27T22:53:30.647Z,19.33
2019-04-27T22:56:11.433Z,16.40
2019-04-27T22:58:42.591Z,10.10
2019-04-27T23:01:18.964Z,14.47
2019-04-27T23:03:49.087Z,12.23
2019-04-27T23:06:17.665Z,13.40
2019-04-27T23:08:46.247Z,9.50
2019-04-27T23:11:14.828Z,15.03
2019-04-27T23:13:43.092Z,11.67
2019-04-27T23:16:13.220Z,12.97
2019-04-27T23:18:41.482Z,14.83
2019-04-27T23:21:11.787Z,18.23
2019-04-27T23:23:41.366Z,17.17
2019-04-27T23:26:11.836Z,9.77
2019-04-27T23:28:41.348Z,13.47
2019-04-27T23:31:11.371Z,15.07
2019-04-27T23:33:42.243Z,11.07
2019-04-27T23:36:11.480Z,11.23
2019-04-27T23:38:40.814Z,16.17
2019-04-27T23:41:09.488Z,14.70
2019-04-27T23:43:37.745Z,10.97
2019-04-27T23:46:06.240Z,18.30
2019-04-27T23:48:34.831Z,8.60
2019-04-27T23:51:13.380Z,12.83
2019-04-27T23:53:41.823Z,15.17
2019-04-27T23:56:10.151Z,12.10
2019-04-27T23:58:38.895Z,13.73
